sensor_id;sensor_type;location;lat;lon;timestamp;pressure;altitude;pressure_sealevel;temperature
63158;BMP280;49381;49.338;8.794;2023-02-03T00:00:14;101538.91;;;8.52
63158;BMP280;49381;49.338;8.794;2023-02-03T00:02:14;101534.69;;;8.52
63158;BMP280;49381;49.338;8.794;2023-02-03T00:04:18;101535.34;;;8.47
63158;BMP280;49381;49.338;8.794;2023-02-03T00:06:19;101526.22;;;8.51
63158;BMP280;49381;49.338;8.794;2023-02-03T00:08:22;101537.19;;;8.51
63158;BMP280;49381;49.338;8.794;2023-02-03T00:10:23;101533.06;;;8.54
63158;BMP280;49381;49.338;8.794;2023-02-03T00:12:28;101535.66;;;8.56
63158;BMP280;49381;49.338;8.794;2023-02-03T00:14:34;101528.13;;;8.57
63158;BMP280;49381;49.338;8.794;2023-02-03T00:16:37;101525.63;;;8.59
63158;BMP280;49381;49.338;8.794;2023-02-03T00:18:40;101541.78;;;8.62
63158;BMP280;49381;49.338;8.794;2023-02-03T00:20:42;101543.41;;;8.60
63158;BMP280;49381;49.338;8.794;2023-02-03T00:22:43;101539.09;;;8.58
63158;BMP280;49381;49.338;8.794;2023-02-03T00:24:45;101544.13;;;8.58
63158;BMP280;49381;49.338;8.794;2023-02-03T00:26:48;101548.88;;;8.49
63158;BMP280;49381;49.338;8.794;2023-02-03T00:28:53;101546.44;;;8.51
63158;BMP280;49381;49.338;8.794;2023-02-03T00:30:53;101538.13;;;8.54
63158;BMP280;49381;49.338;8.794;2023-02-03T00:32:54;101536.09;;;8.45
63158;BMP280;49381;49.338;8.794;2023-02-03T00:34:57;101527.94;;;8.52
63158;BMP280;49381;49.338;8.794;2023-02-03T00:37:00;101533.81;;;8.51
63158;BMP280;49381;49.338;8.794;2023-02-03T00:39:01;101535.50;;;8.52
63158;BMP280;49381;49.338;8.794;2023-02-03T00:41:04;101531.16;;;8.48
63158;BMP280;49381;49.338;8.794;2023-02-03T00:43:05;101538.78;;;8.49
63158;BMP280;49381;49.338;8.794;2023-02-03T00:45:08;101535.47;;;8.50
63158;BMP280;49381;49.338;8.794;2023-02-03T00:47:08;101523.78;;;8.53
63158;BMP280;49381;49.338;8.794;2023-02-03T00:49:09;101515.88;;;8.45
63158;BMP280;49381;49.338;8.794;2023-02-03T00:51:10;101506.66;;;8.45
63158;BMP280;49381;49.338;8.794;2023-02-03T00:53:10;101500.88;;;8.49
63158;BMP280;49381;49.338;8.794;2023-02-03T00:55:12;101498.31;;;8.48
63158;BMP280;49381;49.338;8.794;2023-02-03T00:57:13;101504.22;;;8.48
63158;BMP280;49381;49.338;8.794;2023-02-03T00:59:15;101497.66;;;8.53
63158;BMP280;49381;49.338;8.794;2023-02-03T01:01:18;101496.94;;;8.57
63158;BMP280;49381;49.338;8.794;2023-02-03T01:03:19;101501.72;;;8.50
63158;BMP280;49381;49.338;8.794;2023-02-03T01:05:19;101494.44;;;8.58
63158;BMP280;49381;49.338;8.794;2023-02-03T01:07:22;101489.41;;;8.58
63158;BMP280;49381;49.338;8.794;2023-02-03T01:09:22;101496.59;;;8.47
63158;BMP280;49381;49.338;8.794;2023-02-03T01:11:24;101499.31;;;8.52
63158;BMP280;49381;49.338;8.794;2023-02-03T01:13:25;101506.75;;;8.48
63158;BMP280;49381;49.338;8.794;2023-02-03T01:15:25;101504.34;;;8.51
63158;BMP280;49381;49.338;8.794;2023-02-03T01:17:27;101523.47;;;8.45
63158;BMP280;49381;49.338;8.794;2023-02-03T01:19:30;101521.88;;;8.47
63158;BMP280;49381;49.338;8.794;2023-02-03T01:21:31;101523.69;;;8.51
63158;BMP280;49381;49.338;8.794;2023-02-03T01:23:31;101524.56;;;8.51
63158;BMP280;49381;49.338;8.794;2023-02-03T01:25:33;101530.53;;;8.54
63158;BMP280;49381;49.338;8.794;2023-02-03T01:27:34;101532.28;;;8.55
63158;BMP280;49381;49.338;8.794;2023-02-03T01:29:35;101509.63;;;8.58
63158;BMP280;49381;49.338;8.794;2023-02-03T01:31:40;101498.66;;;8.58
63158;BMP280;49381;49.338;8.794;2023-02-03T01:33:44;101494.44;;;8.58
63158;BMP280;49381;49.338;8.794;2023-02-03T01:35:45;101482.44;;;8.52
63158;BMP280;49381;49.338;8.794;2023-02-03T01:37:47;101474.94;;;8.54
63158;BMP280;49381;49.338;8.794;2023-02-03T01:39:48;101465.56;;;8.51
63158;BMP280;49381;49.338;8.794;2023-02-03T01:41:48;101461.38;;;8.51
63158;BMP280;49381;49.338;8.794;2023-02-03T01:44:00;101452.19;;;8.54
63158;BMP280;49381;49.338;8.794;2023-02-03T01:46:04;101448.97;;;8.58
63158;BMP280;49381;49.338;8.794;2023-02-03T01:48:07;101435.44;;;8.56
63158;BMP280;49381;49.338;8.794;2023-02-03T01:50:13;101447.06;;;8.52
63158;BMP280;49381;49.338;8.794;2023-02-03T01:52:14;101440.31;;;8.51
63158;BMP280;49381;49.338;8.794;2023-02-03T01:54:18;101450.66;;;8.59
63158;BMP280;49381;49.338;8.794;2023-02-03T01:56:20;101450.66;;;8.59
63158;BMP280;49381;49.338;8.794;2023-02-03T01:58:22;101465.06;;;8.60
63158;BMP280;49381;49.338;8.794;2023-02-03T02:00:26;101460.19;;;8.66
63158;BMP280;49381;49.338;8.794;2023-02-03T02:02:29;101463.25;;;8.58
63158;BMP280;49381;49.338;8.794;2023-02-03T02:04:38;101453.34;;;8.64
63158;BMP280;49381;49.338;8.794;2023-02-03T02:06:43;101424.66;;;8.62
63158;BMP280;49381;49.338;8.794;2023-02-03T02:08:48;101389.91;;;8.55
63158;BMP280;49381;49.338;8.794;2023-02-03T02:10:50;101395.59;;;8.50
63158;BMP280;49381;49.338;8.794;2023-02-03T02:12:54;101426.00;;;8.51
63158;BMP280;49381;49.338;8.794;2023-02-03T02:14:58;101437.84;;;8.53
63158;BMP280;49381;49.338;8.794;2023-02-03T02:17:05;101424.47;;;8.56
63158;BMP280;49381;49.338;8.794;2023-02-03T02:19:32;101435.50;;;8.59
63158;BMP280;49381;49.338;8.794;2023-02-03T02:22:01;101431.13;;;8.28
63158;BMP280;49381;49.338;8.794;2023-02-03T02:26:44;101426.66;;;8.46
63158;BMP280;49381;49.338;8.794;2023-02-03T02:29:05;101431.13;;;8.54
63158;BMP280;49381;49.338;8.794;2023-02-03T02:31:39;101421.88;;;8.54
63158;BMP280;49381;49.338;8.794;2023-02-03T02:33:43;101431.13;;;8.54
63158;BMP280;49381;49.338;8.794;2023-02-03T02:35:50;101425.31;;;8.56
63158;BMP280;49381;49.338;8.794;2023-02-03T02:37:58;101420.28;;;8.56
63158;BMP280;49381;49.338;8.794;2023-02-03T02:40:08;101406.97;;;8.62
63158;BMP280;49381;49.338;8.794;2023-02-03T02:42:17;101409.44;;;8.60
63158;BMP280;49381;49.338;8.794;2023-02-03T02:44:29;101413.69;;;8.61
63158;BMP280;49381;49.338;8.794;2023-02-03T02:46:35;101416.56;;;8.46
63158;BMP280;49381;49.338;8.794;2023-02-03T02:48:41;101405.00;;;8.53
63158;BMP280;49381;49.338;8.794;2023-02-03T02:50:48;101394.16;;;8.56
63158;BMP280;49381;49.338;8.794;2023-02-03T02:52:52;101395.03;;;8.58
63158;BMP280;49381;49.338;8.794;2023-02-03T02:54:56;101396.84;;;8.62
63158;BMP280;49381;49.338;8.794;2023-02-03T02:57:05;101395.34;;;8.68
63158;BMP280;49381;49.338;8.794;2023-02-03T02:59:11;101394.75;;;8.49
63158;BMP280;49381;49.338;8.794;2023-02-03T03:01:16;101389.91;;;8.55
63158;BMP280;49381;49.338;8.794;2023-02-03T03:03:18;101403.25;;;8.51
63158;BMP280;49381;49.338;8.794;2023-02-03T03:05:20;101418.16;;;8.44
63158;BMP280;49381;49.338;8.794;2023-02-03T03:07:26;101419.69;;;8.39
63158;BMP280;49381;49.338;8.794;2023-02-03T03:09:32;101425.84;;;8.47
63158;BMP280;49381;49.338;8.794;2023-02-03T03:11:36;101432.72;;;8.51
63158;BMP280;49381;49.338;8.794;2023-02-03T03:13:44;101428.44;;;8.50
63158;BMP280;49381;49.338;8.794;2023-02-03T03:15:46;101419.19;;;8.24
63158;BMP280;49381;49.338;8.794;2023-02-03T03:17:52;101426.38;;;8.37
63158;BMP280;49381;49.338;8.794;2023-02-03T03:19:55;101436.63;;;8.41
63158;BMP280;49381;49.338;8.794;2023-02-03T03:22:03;101445.91;;;8.42
63158;BMP280;49381;49.338;8.794;2023-02-03T03:24:06;101448.09;;;8.32
63158;BMP280;49381;49.338;8.794;2023-02-03T03:26:10;101442.84;;;8.26
63158;BMP280;49381;49.338;8.794;2023-02-03T03:28:15;101455.97;;;8.41
63158;BMP280;49381;49.338;8.794;2023-02-03T03:30:22;101452.59;;;8.40
63158;BMP280;49381;49.338;8.794;2023-02-03T03:32:23;101452.59;;;8.40
63158;BMP280;49381;49.338;8.794;2023-02-03T03:34:24;101448.09;;;8.32
63158;BMP280;49381;49.338;8.794;2023-02-03T03:36:28;101459.06;;;8.32
63158;BMP280;49381;49.338;8.794;2023-02-03T03:38:34;101460.19;;;8.40
63158;BMP280;49381;49.338;8.794;2023-02-03T03:40:42;101461.75;;;8.37
63158;BMP280;49381;49.338;8.794;2023-02-03T03:42:51;101460.53;;;8.26
63158;BMP280;49381;49.338;8.794;2023-02-03T03:44:58;101456.19;;;8.22
63158;BMP280;49381;49.338;8.794;2023-02-03T03:47:18;101459.91;;;8.33
63158;BMP280;49381;49.338;8.794;2023-02-03T03:49:22;101469.13;;;8.06
63158;BMP280;49381;49.338;8.794;2023-02-03T03:51:27;101462.94;;;8.23
63158;BMP280;49381;49.338;8.794;2023-02-03T03:53:32;101462.22;;;8.26
63158;BMP280;49381;49.338;8.794;2023-02-03T03:55:35;101458.88;;;8.27
63158;BMP280;49381;49.338;8.794;2023-02-03T03:57:39;101469.16;;;8.32
63158;BMP280;49381;49.338;8.794;2023-02-03T03:59:44;101473.06;;;8.23
63158;BMP280;49381;49.338;8.794;2023-02-03T04:01:46;101463.72;;;8.21
63158;BMP280;49381;49.338;8.794;2023-02-03T04:03:51;101456.94;;;8.20
63158;BMP280;49381;49.338;8.794;2023-02-03T04:05:56;101452.47;;;8.11
63158;BMP280;49381;49.338;8.794;2023-02-03T04:07:59;101446.78;;;8.18
63158;BMP280;49381;49.338;8.794;2023-02-03T04:10:11;101453.56;;;8.19
63158;BMP280;49381;49.338;8.794;2023-02-03T04:12:21;101443.56;;;8.22
63158;BMP280;49381;49.338;8.794;2023-02-03T04:14:22;101463.50;;;8.15
63158;BMP280;49381;49.338;8.794;2023-02-03T04:16:22;101450.25;;;8.20
63158;BMP280;49381;49.338;8.794;2023-02-03T04:18:23;101462.94;;;8.23
63158;BMP280;49381;49.338;8.794;2023-02-03T04:20:24;101460.47;;;8.25
63158;BMP280;49381;49.338;8.794;2023-02-03T04:22:30;101463.66;;;8.19
63158;BMP280;49381;49.338;8.794;2023-02-03T04:24:35;101470.38;;;8.19
63158;BMP280;49381;49.338;8.794;2023-02-03T04:26:37;101457.16;;;8.02
63158;BMP280;49381;49.338;8.794;2023-02-03T04:28:40;101469.50;;;7.95
63158;BMP280;49381;49.338;8.794;2023-02-03T04:30:45;101458.00;;;7.78
63158;BMP280;49381;49.338;8.794;2023-02-03T04:32:48;101464.22;;;7.88
63158;BMP280;49381;49.338;8.794;2023-02-03T04:34:50;101455.94;;;7.92
63158;BMP280;49381;49.338;8.794;2023-02-03T04:36:51;101456.84;;;7.94
63158;BMP280;49381;49.338;8.794;2023-02-03T04:38:54;101456.78;;;7.91
63158;BMP280;49381;49.338;8.794;2023-02-03T04:40:55;101443.41;;;7.95
63158;BMP280;49381;49.338;8.794;2023-02-03T04:43:04;101441.00;;;7.98
63158;BMP280;49381;49.338;8.794;2023-02-03T04:45:08;101457.88;;;7.99
63158;BMP280;49381;49.338;8.794;2023-02-03T04:47:09;101462.84;;;7.96
63158;BMP280;49381;49.338;8.794;2023-02-03T04:49:09;101463.06;;;8.03
63158;BMP280;49381;49.338;8.794;2023-02-03T04:51:10;101465.34;;;7.96
63158;BMP280;49381;49.338;8.794;2023-02-03T04:53:10;101454.44;;;7.97
63158;BMP280;49381;49.338;8.794;2023-02-03T04:55:11;101459.66;;;8.01
63158;BMP280;49381;49.338;8.794;2023-02-03T04:57:11;101463.03;;;8.02
63158;BMP280;49381;49.338;8.794;2023-02-03T04:59:13;101460.63;;;8.04
63158;BMP280;49381;49.338;8.794;2023-02-03T05:01:14;101462.44;;;8.08
63158;BMP280;49381;49.338;8.794;2023-02-03T05:03:17;101466.59;;;8.06
63158;BMP280;49381;49.338;8.794;2023-02-03T05:05:20;101449.59;;;8.02
63158;BMP280;49381;49.338;8.794;2023-02-03T05:07:21;101452.97;;;8.03
63158;BMP280;49381;49.338;8.794;2023-02-03T05:09:23;101447.22;;;8.05
63158;BMP280;49381;49.338;8.794;2023-02-03T05:11:29;101438.53;;;7.99
63158;BMP280;49381;49.338;8.794;2023-02-03T05:13:29;101449.31;;;7.95
63158;BMP280;49381;49.338;8.794;2023-02-03T05:15:31;101461.03;;;7.93
63158;BMP280;49381;49.338;8.794;2023-02-03T05:17:31;101461.16;;;7.96
63158;BMP280;49381;49.338;8.794;2023-02-03T05:19:32;101460.31;;;7.96
63158;BMP280;49381;49.338;8.794;2023-02-03T05:21:32;101444.50;;;8.01
63158;BMP280;49381;49.338;8.794;2023-02-03T05:23:33;101444.94;;;7.90
63158;BMP280;49381;49.338;8.794;2023-02-03T05:25:33;101441.69;;;7.94
63158;BMP280;49381;49.338;8.794;2023-02-03T05:27:33;101439.09;;;7.91
63158;BMP280;49381;49.338;8.794;2023-02-03T05:29:34;101440.19;;;7.99
63158;BMP280;49381;49.338;8.794;2023-02-03T05:31:35;101444.50;;;8.01
63158;BMP280;49381;49.338;8.794;2023-02-03T05:33:36;101436.44;;;7.88
63158;BMP280;49381;49.338;8.794;2023-02-03T05:35:36;101444.22;;;7.94
63158;BMP280;49381;49.338;8.794;2023-02-03T05:37:37;101448.38;;;7.92
63158;BMP280;49381;49.338;8.794;2023-02-03T05:39:37;101447.69;;;7.96
63158;BMP280;49381;49.338;8.794;2023-02-03T05:41:38;101445.16;;;7.96
63158;BMP280;49381;49.338;8.794;2023-02-03T05:43:38;101448.53;;;7.96
63158;BMP280;49381;49.338;8.794;2023-02-03T05:45:39;101445.19;;;7.97
63158;BMP280;49381;49.338;8.794;2023-02-03T05:47:41;101447.91;;;8.03
63158;BMP280;49381;49.338;8.794;2023-02-03T05:49:41;101435.06;;;7.96
63158;BMP280;49381;49.338;8.794;2023-02-03T05:51:42;101449.47;;;8.00
63158;BMP280;49381;49.338;8.794;2023-02-03T05:53:43;101453.75;;;8.01
63158;BMP280;49381;49.338;8.794;2023-02-03T05:55:46;101455.72;;;8.09
63158;BMP280;49381;49.338;8.794;2023-02-03T05:57:46;101440.69;;;8.12
63158;BMP280;49381;49.338;8.794;2023-02-03T05:59:47;101435.59;;;8.10
63158;BMP280;49381;49.338;8.794;2023-02-03T06:01:47;101444.84;;;7.87
63158;BMP280;49381;49.338;8.794;2023-02-03T06:03:52;101432.78;;;8.03
63158;BMP280;49381;49.338;8.794;2023-02-03T06:05:52;101417.16;;;7.90
63158;BMP280;49381;49.338;8.794;2023-02-03T06:07:53;101418.91;;;7.91
63158;BMP280;49381;49.338;8.794;2023-02-03T06:09:54;101406.66;;;8.02
63158;BMP280;49381;49.338;8.794;2023-02-03T06:11:59;101408.38;;;8.03
63158;BMP280;49381;49.338;8.794;2023-02-03T06:14:00;101425.38;;;8.07
63158;BMP280;49381;49.338;8.794;2023-02-03T06:16:03;101422.63;;;8.02
63158;BMP280;49381;49.338;8.794;2023-02-03T06:18:07;101416.41;;;7.92
63158;BMP280;49381;49.338;8.794;2023-02-03T06:20:16;101400.56;;;7.96
63158;BMP280;49381;49.338;8.794;2023-02-03T06:22:19;101386.28;;;7.97
63158;BMP280;49381;49.338;8.794;2023-02-03T06:24:21;101383.63;;;7.94
63158;BMP280;49381;49.338;8.794;2023-02-03T06:26:26;101390.69;;;8.03
63158;BMP280;49381;49.338;8.794;2023-02-03T06:28:31;101392.03;;;7.93
63158;BMP280;49381;49.338;8.794;2023-02-03T06:30:34;101386.19;;;7.95
63158;BMP280;49381;49.338;8.794;2023-02-03T06:32:35;101399.47;;;7.90
63158;BMP280;49381;49.338;8.794;2023-02-03T06:34:35;101410.56;;;7.93
63158;BMP280;49381;49.338;8.794;2023-02-03T06:36:39;101406.16;;;7.88
63158;BMP280;49381;49.338;8.794;2023-02-03T06:38:40;101395.75;;;7.79
63158;BMP280;49381;49.338;8.794;2023-02-03T06:40:45;101390.91;;;7.85
63158;BMP280;49381;49.338;8.794;2023-02-03T06:42:46;101386.84;;;7.65
63158;BMP280;49381;49.338;8.794;2023-02-03T06:44:48;101380.75;;;7.83
63158;BMP280;49381;49.338;8.794;2023-02-03T06:46:50;101400.91;;;7.82
63158;BMP280;49381;49.338;8.794;2023-02-03T06:48:52;101403.59;;;7.86
63158;BMP280;49381;49.338;8.794;2023-02-03T06:50:57;101385.16;;;7.89
63158;BMP280;49381;49.338;8.794;2023-02-03T06:52:59;101396.88;;;7.87
63158;BMP280;49381;49.338;8.794;2023-02-03T06:55:01;101407.78;;;7.86
63158;BMP280;49381;49.338;8.794;2023-02-03T06:57:02;101414.44;;;7.84
63158;BMP280;49381;49.338;8.794;2023-02-03T06:59:07;101412.72;;;7.83
63158;BMP280;49381;49.338;8.794;2023-02-03T07:01:11;101412.69;;;7.81
63158;BMP280;49381;49.338;8.794;2023-02-03T07:03:15;101423.47;;;7.77
63158;BMP280;49381;49.338;8.794;2023-02-03T07:05:24;101424.31;;;7.78
63158;BMP280;49381;49.338;8.794;2023-02-03T07:07:32;101429.56;;;7.84
63158;BMP280;49381;49.338;8.794;2023-02-03T07:09:40;101431.50;;;7.66
63158;BMP280;49381;49.338;8.794;2023-02-03T07:11:41;101441.19;;;7.79
63158;BMP280;49381;49.338;8.794;2023-02-03T07:13:45;101452.28;;;7.84
63158;BMP280;49381;49.338;8.794;2023-02-03T07:15:48;101452.28;;;7.84
63158;BMP280;49381;49.338;8.794;2023-02-03T07:17:51;101446.56;;;7.88
63158;BMP280;49381;49.338;8.794;2023-02-03T07:20:08;101436.56;;;7.91
63158;BMP280;49381;49.338;8.794;2023-02-03T07:22:12;101449.28;;;7.94
63158;BMP280;49381;49.338;8.794;2023-02-03T07:24:15;101455.13;;;7.93
63158;BMP280;49381;49.338;8.794;2023-02-03T07:26:19;101457.81;;;7.97
63158;BMP280;49381;49.338;8.794;2023-02-03T07:28:20;101450.63;;;7.84
63158;BMP280;49381;49.338;8.794;2023-02-03T07:30:21;101449.78;;;7.84
63158;BMP280;49381;49.338;8.794;2023-02-03T07:32:23;101446.56;;;7.88
63158;BMP280;49381;49.338;8.794;2023-02-03T07:34:24;101449.84;;;7.85
63158;BMP280;49381;49.338;8.794;2023-02-03T07:36:27;101453.31;;;7.89
63158;BMP280;49381;49.338;8.794;2023-02-03T07:38:33;101458.34;;;7.89
63158;BMP280;49381;49.338;8.794;2023-02-03T07:40:37;101448.25;;;7.89
63158;BMP280;49381;49.338;8.794;2023-02-03T07:42:43;101450.13;;;7.94
63158;BMP280;49381;49.338;8.794;2023-02-03T07:44:44;101461.38;;;7.79
63158;BMP280;49381;49.338;8.794;2023-02-03T07:46:45;101450.09;;;7.93
63158;BMP280;49381;49.338;8.794;2023-02-03T07:48:49;101462.00;;;7.97
63158;BMP280;49381;49.338;8.794;2023-02-03T07:50:51;101461.69;;;7.88
63158;BMP280;49381;49.338;8.794;2023-02-03T07:52:52;101457.78;;;7.96
63158;BMP280;49381;49.338;8.794;2023-02-03T07:54:52;101469.59;;;7.97
63158;BMP280;49381;49.338;8.794;2023-02-03T07:56:56;101480.38;;;7.93
63158;BMP280;49381;49.338;8.794;2023-02-03T07:58:59;101489.09;;;8.01
63158;BMP280;49381;49.338;8.794;2023-02-03T08:00:59;101487.19;;;7.95
63158;BMP280;49381;49.338;8.794;2023-02-03T08:03:00;101489.19;;;8.03
63158;BMP280;49381;49.338;8.794;2023-02-03T08:05:03;101481.59;;;8.03
63158;BMP280;49381;49.338;8.794;2023-02-03T08:07:05;101485.28;;;8.11
63158;BMP280;49381;49.338;8.794;2023-02-03T08:09:06;101477.53;;;8.05
63158;BMP280;49381;49.338;8.794;2023-02-03T08:11:07;101489.53;;;8.12
63158;BMP280;49381;49.338;8.794;2023-02-03T08:13:09;101481.06;;;8.10
63158;BMP280;49381;49.338;8.794;2023-02-03T08:15:17;101475.03;;;8.07
63158;BMP280;49381;49.338;8.794;2023-02-03T08:17:20;101481.06;;;8.10
63158;BMP280;49381;49.338;8.794;2023-02-03T08:19:21;101482.84;;;8.14
63158;BMP280;49381;49.338;8.794;2023-02-03T08:21:22;101478.66;;;8.15
63158;BMP280;49381;49.338;8.794;2023-02-03T08:23:22;101499.50;;;8.09
63158;BMP280;49381;49.338;8.794;2023-02-03T08:25:23;101479.22;;;8.06
63158;BMP280;49381;49.338;8.794;2023-02-03T08:27:23;101480.81;;;8.04
63158;BMP280;49381;49.338;8.794;2023-02-03T08:29:24;101469.94;;;8.05
63158;BMP280;49381;49.338;8.794;2023-02-03T08:31:27;101491.09;;;8.09
63158;BMP280;49381;49.338;8.794;2023-02-03T08:33:28;101491.03;;;8.07
63158;BMP280;49381;49.338;8.794;2023-02-03T08:35:28;101492.72;;;8.07
63158;BMP280;49381;49.338;8.794;2023-02-03T08:37:29;101489.66;;;8.15
63158;BMP280;49381;49.338;8.794;2023-02-03T08:39:29;101490.50;;;8.16
63158;BMP280;49381;49.338;8.794;2023-02-03T08:41:30;101477.88;;;8.16
63158;BMP280;49381;49.338;8.794;2023-02-03T08:43:32;101473.25;;;8.04
63158;BMP280;49381;49.338;8.794;2023-02-03T08:45:35;101468.97;;;8.03
63158;BMP280;49381;49.338;8.794;2023-02-03T08:47:37;101472.81;;;8.16
63158;BMP280;49381;49.338;8.794;2023-02-03T08:49:37;101470.50;;;8.22
63158;BMP280;49381;49.338;8.794;2023-02-03T08:51:37;101462.09;;;8.23
63158;BMP280;49381;49.338;8.794;2023-02-03T08:53:38;101459.59;;;8.24
63158;BMP280;49381;49.338;8.794;2023-02-03T08:55:39;101464.66;;;8.24
63158;BMP280;49381;49.338;8.794;2023-02-03T08:57:39;101467.00;;;8.18
63158;BMP280;49381;49.338;8.794;2023-02-03T08:59:42;101478.22;;;8.26
63158;BMP280;49381;49.338;8.794;2023-02-03T09:01:43;101464.94;;;8.31
63158;BMP280;49381;49.338;8.794;2023-02-03T09:03:46;101485.19;;;8.33
63158;BMP280;49381;49.338;8.794;2023-02-03T09:05:49;101464.25;;;8.37
63158;BMP280;49381;49.338;8.794;2023-02-03T09:07:49;101445.72;;;8.36
63158;BMP280;49381;49.338;8.794;2023-02-03T09:09:50;101455.75;;;8.35
63158;BMP280;49381;49.338;8.794;2023-02-03T09:11:52;101476.34;;;8.21
63158;BMP280;49381;49.338;8.794;2023-02-03T09:13:52;101468.19;;;8.29
63158;BMP280;49381;49.338;8.794;2023-02-03T09:15:53;101469.00;;;8.28
63158;BMP280;49381;49.338;8.794;2023-02-03T09:17:55;101469.16;;;8.32
63158;BMP280;49381;49.338;8.794;2023-02-03T09:19:57;101465.09;;;8.36
63158;BMP280;49381;49.338;8.794;2023-02-03T09:21:57;101466.88;;;8.40
63158;BMP280;49381;49.338;8.794;2023-02-03T09:23:59;101465.66;;;8.29
63158;BMP280;49381;49.338;8.794;2023-02-03T09:26:02;101468.19;;;8.29
63158;BMP280;49381;49.338;8.794;2023-02-03T09:28:04;101468.63;;;8.41
63158;BMP280;49381;49.338;8.794;2023-02-03T09:30:06;101463.59;;;8.42
63158;BMP280;49381;49.338;8.794;2023-02-03T09:32:06;101458.69;;;8.47
63158;BMP280;49381;49.338;8.794;2023-02-03T09:34:07;101459.41;;;8.43
63158;BMP280;49381;49.338;8.794;2023-02-03T09:36:09;101459.41;;;8.43
63158;BMP280;49381;49.338;8.794;2023-02-03T09:38:09;101456.06;;;8.44
63158;BMP280;49381;49.338;8.794;2023-02-03T09:40:17;101460.38;;;8.46
63158;BMP280;49381;49.338;8.794;2023-02-03T09:42:42;101463.09;;;8.52
63158;BMP280;49381;49.338;8.794;2023-02-03T09:44:55;101452.19;;;8.54
63158;BMP280;49381;49.338;8.794;2023-02-03T09:46:59;101458.13;;;8.55
63158;BMP280;49381;49.338;8.794;2023-02-03T09:49:05;101459.78;;;8.54
63158;BMP280;49381;49.338;8.794;2023-02-03T09:51:17;101460.09;;;8.39
63158;BMP280;49381;49.338;8.794;2023-02-03T09:53:27;101457.13;;;8.50
63158;BMP280;49381;49.338;8.794;2023-02-03T09:55:34;101460.09;;;8.39
63158;BMP280;49381;49.338;8.794;2023-02-03T09:57:41;101460.03;;;8.36
63158;BMP280;49381;49.338;8.794;2023-02-03T09:59:43;101470.22;;;8.39
63158;BMP280;49381;49.338;8.794;2023-02-03T10:01:49;101464.66;;;8.49
63158;BMP280;49381;49.338;8.794;2023-02-03T10:03:58;101456.16;;;8.47
63158;BMP280;49381;49.338;8.794;2023-02-03T10:06:08;101444.56;;;8.53
63158;BMP280;49381;49.338;8.794;2023-02-03T10:08:22;101444.72;;;8.57
63158;BMP280;49381;49.338;8.794;2023-02-03T10:10:35;101438.03;;;8.59
63158;BMP280;49381;49.338;8.794;2023-02-03T10:12:56;101439.81;;;8.62
63158;BMP280;49381;49.338;8.794;2023-02-03T10:15:18;101457.47;;;8.60
63158;BMP280;49381;49.338;8.794;2023-02-03T10:17:28;101449.06;;;8.61
63158;BMP280;49381;49.338;8.794;2023-02-03T10:19:35;101460.19;;;8.66
63158;BMP280;49381;49.338;8.794;2023-02-03T10:21:43;101478.53;;;8.61
63158;BMP280;49381;49.338;8.794;2023-02-03T10:23:46;101486.28;;;8.65
63158;BMP280;49381;49.338;8.794;2023-02-03T10:25:50;101469.38;;;8.64
63158;BMP280;49381;49.338;8.794;2023-02-03T10:27:54;101468.50;;;8.64
63158;BMP280;49381;49.338;8.794;2023-02-03T10:29:58;101460.34;;;8.72
63158;BMP280;49381;49.338;8.794;2023-02-03T10:32:00;101465.31;;;8.69
63158;BMP280;49381;49.338;8.794;2023-02-03T10:34:08;101466.97;;;8.69
63158;BMP280;49381;49.338;8.794;2023-02-03T10:36:15;101456.84;;;8.67
63158;BMP280;49381;49.338;8.794;2023-02-03T10:38:29;101458.06;;;8.53
63158;BMP280;49381;49.338;8.794;2023-02-03T10:40:33;101459.19;;;8.61
63158;BMP280;49381;49.338;8.794;2023-02-03T10:42:33;101455.00;;;8.63
63158;BMP280;49381;49.338;8.794;2023-02-03T10:44:39;101457.31;;;8.56
63158;BMP280;49381;49.338;8.794;2023-02-03T10:46:42;101463.22;;;8.56
63158;BMP280;49381;49.338;8.794;2023-02-03T10:48:43;101454.59;;;8.50
63158;BMP280;49381;49.338;8.794;2023-02-03T10:50:47;101447.91;;;8.52
63158;BMP280;49381;49.338;8.794;2023-02-03T10:53:24;101442.81;;;8.51
63158;BMP280;49381;49.338;8.794;2023-02-03T10:55:28;101446.25;;;8.52
63158;BMP280;49381;49.338;8.794;2023-02-03T10:57:34;101432.13;;;8.59
63158;BMP280;49381;49.338;8.794;2023-02-03T10:59:45;101432.19;;;8.60
63158;BMP280;49381;49.338;8.794;2023-02-03T11:01:46;101419.81;;;8.69
63158;BMP280;49381;49.338;8.794;2023-02-03T11:03:58;101427.69;;;8.78
63158;BMP280;49381;49.338;8.794;2023-02-03T11:06:08;101422.63;;;8.78
63158;BMP280;49381;49.338;8.794;2023-02-03T11:08:14;101414.03;;;8.73
63158;BMP280;49381;49.338;8.794;2023-02-03T11:10:34;101409.03;;;8.75
63158;BMP280;49381;49.338;8.794;2023-02-03T11:12:36;101411.69;;;8.79
63158;BMP280;49381;49.338;8.794;2023-02-03T11:14:39;101419.28;;;8.79
63158;BMP280;49381;49.338;8.794;2023-02-03T11:16:40;101402.41;;;8.78
63158;BMP280;49381;49.338;8.794;2023-02-03T11:18:46;101399.88;;;8.78
63158;BMP280;49381;49.338;8.794;2023-02-03T11:20:50;101391.41;;;8.76
63158;BMP280;49381;49.338;8.794;2023-02-03T11:22:50;101398.19;;;8.78
63158;BMP280;49381;49.338;8.794;2023-02-03T11:24:51;101400.78;;;8.80
63158;BMP280;49381;49.338;8.794;2023-02-03T11:26:54;101407.63;;;8.84
63158;BMP280;49381;49.338;8.794;2023-02-03T11:28:59;101399.97;;;8.81
63158;BMP280;49381;49.338;8.794;2023-02-03T11:31:00;101414.50;;;8.88
63158;BMP280;49381;49.338;8.794;2023-02-03T11:33:01;101394.28;;;8.88
63158;BMP280;49381;49.338;8.794;2023-02-03T11:35:13;101397.31;;;8.77
63158;BMP280;49381;49.338;8.794;2023-02-03T11:37:28;101395.78;;;8.81
63158;BMP280;49381;49.338;8.794;2023-02-03T11:39:30;101388.16;;;8.80
63158;BMP280;49381;49.338;8.794;2023-02-03T11:41:36;101388.94;;;8.79
63158;BMP280;49381;49.338;8.794;2023-02-03T11:43:38;101400.19;;;8.88
63158;BMP280;49381;49.338;8.794;2023-02-03T11:45:41;101406.28;;;8.95
63158;BMP280;49381;49.338;8.794;2023-02-03T11:47:48;101404.91;;;8.78
63158;BMP280;49381;49.338;8.794;2023-02-03T11:49:53;101400.97;;;8.86
63158;BMP280;49381;49.338;8.794;2023-02-03T11:52:15;101405.09;;;8.84
63158;BMP280;49381;49.338;8.794;2023-02-03T11:54:27;101414.44;;;8.85
63158;BMP280;49381;49.338;8.794;2023-02-03T11:56:36;101422.91;;;8.87